Time;durP1;ratioP1;P1;durP2;ratioP2;P2;SDS_P1;SDS_P2;PMS_P1;PMS_P2;Temp;Humidity;BMP_temperature;BMP_pressure;BME280_temperature;BME280_humidity;BME280_pressure;Samples;Min_cycle;Max_cycle;Signal;HPM_P1;HPM_P2
2021/05/13 00:01:31;;;;;;;3.33;2.47;;;12.00;99.00;;;;;;5065550;28;20044;-85
2021/05/13 00:03:57;;;;;;;4.40;2.67;;;11.90;99.10;;;;;;5065486;28;20040;-86
2021/05/13 00:06:23;;;;;;;3.15;2.53;;;11.80;99.10;;;;;;5053398;28;20037;-86
2021/05/13 00:08:56;;;;;;;4.68;2.38;;;11.80;99.10;;;;;;5070457;28;20039;-86
2021/05/13 00:11:31;;;;;;;5.10;2.30;;;11.80;99.30;;;;;;5051640;28;20036;-86
2021/05/13 00:13:57;;;;;;;4.05;2.47;;;11.70;99.30;;;;;;5062060;28;20068;-87
2021/05/13 00:16:29;;;;;;;2.85;2.20;;;11.70;99.20;;;;;;5051652;28;20042;-87
2021/05/13 00:18:55;;;;;;;4.32;2.67;;;11.70;99.20;;;;;;5050052;28;20040;-86
2021/05/13 00:21:20;;;;;;;3.72;2.35;;;11.70;99.20;;;;;;5063537;28;20072;-86
2021/05/13 00:23:46;;;;;;;3.88;2.35;;;11.60;99.40;;;;;;5057607;28;20059;-86
2021/05/13 00:26:11;;;;;;;3.83;3.00;;;11.70;99.50;;;;;;5074044;28;20040;-86
2021/05/13 00:28:37;;;;;;;4.70;2.38;;;11.70;99.50;;;;;;5064890;28;20308;-86
2021/05/13 00:31:02;;;;;;;4.40;3.33;;;11.70;99.50;;;;;;5065242;28;20072;-87
2021/05/13 00:33:28;;;;;;;3.30;2.78;;;11.60;99.50;;;;;;5051039;28;20067;-86
2021/05/13 00:35:53;;;;;;;5.10;3.15;;;11.60;99.60;;;;;;5092143;28;20041;-85
2021/05/13 00:38:19;;;;;;;3.83;3.20;;;11.60;99.50;;;;;;5090389;28;20037;-86
2021/05/13 00:40:44;;;;;;;6.07;3.28;;;11.60;99.50;;;;;;5051488;28;20379;-86
2021/05/13 00:43:10;;;;;;;3.90;3.38;;;11.70;99.50;;;;;;5046076;28;20062;-85
2021/05/13 00:45:35;;;;;;;3.50;2.70;;;11.70;99.40;;;;;;5047487;28;20536;-86
2021/05/13 00:48:05;;;;;;;3.88;3.47;;;11.70;99.30;;;;;;5045007;28;20048;-84
2021/05/13 00:50:32;;;;;;;7.40;2.92;;;11.70;99.40;;;;;;5044694;28;20119;-85
2021/05/13 00:53:01;;;;;;;4.20;2.90;;;11.70;99.40;;;;;;5056862;28;20095;-85
2021/05/13 00:55:26;;;;;;;3.30;3.00;;;11.70;99.50;;;;;;5050194;28;20055;-85
2021/05/13 00:57:54;;;;;;;7.55;4.47;;;11.70;99.30;;;;;;5046777;28;20475;-85
2021/05/13 01:03:05;;;;;;;6.30;3.90;;;11.70;99.30;;;;;;5069791;28;20055;-84
2021/05/13 01:05:33;;;;;;;6.18;3.85;;;11.70;99.40;;;;;;5070093;28;20045;-85
2021/05/13 01:08:00;;;;;;;5.40;4.65;;;11.60;99.50;;;;;;5067333;28;20323;-86
2021/05/13 01:10:27;;;;;;;5.68;3.90;;;11.60;99.60;;;;;;5044636;28;20116;-84
2021/05/13 01:12:54;;;;;;;4.82;4.07;;;11.70;99.30;;;;;;5042881;28;20033;-85
2021/05/13 01:15:30;;;;;;;5.47;3.95;;;11.70;99.30;;;;;;5080808;28;20079;-86
2021/05/13 01:20:26;;;;;;;4.97;4.20;;;11.70;99.10;;;;;;5062723;28;20052;-85
2021/05/13 01:22:53;;;;;;;6.38;4.45;;;11.70;99.20;;;;;;5041651;28;20036;-85
2021/05/13 01:25:19;;;;;;;6.45;4.07;;;11.60;99.20;;;;;;5057146;28;20037;-86
2021/05/13 01:27:44;;;;;;;7.70;4.22;;;11.60;99.30;;;;;;5051393;28;20391;-85
2021/05/13 01:30:11;;;;;;;5.10;4.25;;;11.60;99.50;;;;;;5054509;28;20126;-85
2021/05/13 01:32:36;;;;;;;4.53;3.40;;;11.60;99.50;;;;;;5056038;28;20041;-86
2021/05/13 01:35:02;;;;;;;7.78;4.28;;;11.60;99.50;;;;;;5048775;28;20071;-86
2021/05/13 01:37:28;;;;;;;8.20;4.78;;;11.60;99.50;;;;;;5078186;28;20106;-86
2021/05/13 01:39:53;;;;;;;6.65;4.57;;;11.60;99.50;;;;;;5043652;28;20127;-85
2021/05/13 01:42:19;;;;;;;6.80;5.07;;;11.60;99.50;;;;;;5049681;28;20036;-85
2021/05/13 01:44:45;;;;;;;4.93;4.13;;;11.60;99.80;;;;;;5051977;28;20040;-85
2021/05/13 01:47:11;;;;;;;6.60;4.80;;;11.60;99.60;;;;;;5055385;28;20049;-85
2021/05/13 01:49:36;;;;;;;5.72;4.10;;;11.70;99.50;;;;;;5075489;28;20403;-86
2021/05/13 01:52:02;;;;;;;10.40;4.43;;;11.60;99.40;;;;;;5066562;28;20056;-85
2021/05/13 01:54:28;;;;;;;7.38;4.95;;;11.60;99.60;;;;;;5072769;28;20047;-86
2021/05/13 01:57:04;;;;;;;9.35;5.05;;;11.60;99.50;;;;;;5070178;28;20063;-85
2021/05/13 01:59:30;;;;;;;6.07;5.40;;;11.70;99.50;;;;;;5040266;28;20115;-86
2021/05/13 02:01:55;;;;;;;8.20;5.78;;;11.60;99.40;;;;;;5052512;28;20044;-86
2021/05/13 02:04:21;;;;;;;7.78;6.05;;;11.70;99.40;;;;;;5049847;28;20047;-86
2021/05/13 02:06:46;;;;;;;8.77;5.38;;;11.70;99.50;;;;;;5049918;28;20041;-87
2021/05/13 02:09:12;;;;;;;7.93;6.30;;;11.70;99.30;;;;;;5057061;28;20044;-86
2021/05/13 02:11:37;;;;;;;8.75;6.60;;;11.70;99.30;;;;;;5078003;28;20095;-88
2021/05/13 02:14:03;;;;;;;7.07;5.60;;;11.70;99.10;;;;;;5062880;28;20434;-87
2021/05/13 02:16:29;;;;;;;7.20;6.00;;;11.60;99.10;;;;;;5052116;28;20044;-87
2021/05/13 02:18:54;;;;;;;7.53;6.35;;;11.60;99.30;;;;;;5074125;28;20370;-86
2021/05/13 02:21:20;;;;;;;7.68;5.18;;;11.60;99.20;;;;;;5055251;28;20378;-87
2021/05/13 02:23:45;;;;;;;10.00;6.63;;;11.60;99.30;;;;;;5079978;28;20127;-87
2021/05/13 02:26:11;;;;;;;6.97;5.43;;;11.60;99.30;;;;;;5054148;28;20076;-86
2021/05/13 02:28:36;;;;;;;16.92;6.50;;;11.60;99.20;;;;;;5061648;28;20029;-86
2021/05/13 02:31:02;;;;;;;6.88;5.63;;;11.60;99.20;;;;;;5043119;28;20076;-86
2021/05/13 02:33:27;;;;;;;10.10;6.25;;;11.60;99.30;;;;;;5054545;28;20074;-86
2021/05/13 02:35:52;;;;;;;8.57;5.28;;;11.60;99.20;;;;;;5065434;28;20036;-86
2021/05/13 02:38:18;;;;;;;11.23;5.90;;;11.60;99.30;;;;;;5041441;28;20104;-87
2021/05/13 02:40:43;;;;;;;8.40;5.35;;;11.60;99.20;;;;;;5054922;28;20055;-88
2021/05/13 02:43:09;;;;;;;9.90;5.70;;;11.70;99.20;;;;;;5049285;28;20083;-87
2021/05/13 02:45:34;;;;;;;10.25;6.25;;;11.70;99.20;;;;;;5042680;28;20056;-87
2021/05/13 02:48:00;;;;;;;9.98;6.53;;;11.70;99.20;;;;;;5067121;28;20083;-86
2021/05/13 02:50:26;;;;;;;9.98;6.68;;;11.70;99.10;;;;;;5045566;28;20134;-86
2021/05/13 02:52:51;;;;;;;11.60;6.63;;;11.70;99.30;;;;;;5074698;28;20028;-87
2021/05/13 02:55:17;;;;;;;8.63;6.03;;;11.70;99.20;;;;;;5065209;28;20406;-87
2021/05/13 02:57:44;;;;;;;9.27;6.20;;;11.70;99.20;;;;;;5073959;28;20040;-87
2021/05/13 03:00:26;;;;;;;13.18;7.50;;;11.70;99.00;;;;;;5051697;28;20407;-88
2021/05/13 03:02:53;;;;;;;7.03;4.82;;;11.70;99.20;;;;;;5045602;28;20158;-86
2021/05/13 03:05:19;;;;;;;11.30;7.70;;;11.70;99.00;;;;;;5066538;28;20048;-86
2021/05/13 03:07:48;;;;;;;8.80;7.10;;;11.60;99.20;;;;;;5051051;28;20041;-87
2021/05/13 03:10:19;;;;;;;11.10;7.15;;;11.60;99.00;;;;;;5058677;28;20040;-87
2021/05/13 03:12:47;;;;;;;12.03;7.90;;;11.70;98.90;;;;;;5070034;28;20036;-86
2021/05/13 03:15:12;;;;;;;11.73;7.22;;;11.60;98.80;;;;;;5058484;28;20040;-87
2021/05/13 03:17:38;;;;;;;10.65;7.53;;;11.60;99.00;;;;;;5047543;28;20037;-87
2021/05/13 03:20:05;;;;;;;9.65;6.78;;;11.60;98.80;;;;;;5074894;28;20064;-87
2021/05/13 03:22:30;;;;;;;10.48;7.70;;;11.60;98.80;;;;;;5053401;28;20055;-87
2021/05/13 03:25:01;;;;;;;8.68;5.97;;;11.60;98.60;;;;;;5068044;28;20040;-87
2021/05/13 03:29:56;;;;;;;8.85;6.15;;;11.60;98.80;;;;;;5075372;28;20366;-87
2021/05/13 03:32:23;;;;;;;11.52;6.68;;;11.60;98.70;;;;;;5057080;28;20068;-86
2021/05/13 03:34:49;;;;;;;7.65;5.75;;;11.50;98.80;;;;;;5058077;28;20395;-86
2021/05/13 03:37:14;;;;;;;9.25;6.30;;;11.60;98.80;;;;;;5076741;28;20032;-86
2021/05/13 03:39:40;;;;;;;8.40;6.35;;;11.60;98.70;;;;;;5058246;28;20048;-87
2021/05/13 03:42:06;;;;;;;8.20;6.15;;;11.60;98.70;;;;;;5059128;28;20139;-87
2021/05/13 03:44:31;;;;;;;9.30;6.07;;;11.70;98.60;;;;;;5052324;28;20109;-86
2021/05/13 03:46:57;;;;;;;8.73;6.00;;;11.70;98.80;;;;;;5076032;28;20040;-86
2021/05/13 03:49:22;;;;;;;6.90;5.82;;;11.70;98.40;;;;;;5069613;28;20048;-86
2021/05/13 03:51:48;;;;;;;8.80;5.85;;;11.70;98.40;;;;;;5051976;28;20037;-84
2021/05/13 03:54:14;;;;;;;8.85;5.97;;;11.70;98.50;;;;;;5073182;28;20047;-84
2021/05/13 03:56:39;;;;;;;9.55;6.40;;;11.70;98.40;;;;;;5060394;28;20041;-85
2021/05/13 03:59:13;;;;;;;9.00;5.63;;;11.70;98.30;;;;;;5073726;28;20055;-85
2021/05/13 04:04:22;;;;;;;9.77;6.03;;;11.70;98.20;;;;;;5068354;28;20046;-85
2021/05/13 04:06:49;;;;;;;12.30;6.57;;;11.70;98.30;;;;;;5089664;28;20048;-86
2021/05/13 04:09:15;;;;;;;10.50;6.13;;;11.70;98.30;;;;;;5059335;28;20376;-86
2021/05/13 04:11:40;;;;;;;7.00;5.03;;;11.70;98.30;;;;;;5076725;28;20056;-86
2021/05/13 04:14:08;;;;;;;7.03;4.90;;;11.70;98.10;;;;;;5059448;28;20075;-85
2021/05/13 04:16:37;;;;;;;9.52;5.35;;;11.70;98.10;;;;;;5076526;28;20740;-86
2021/05/13 04:19:03;;;;;;;6.05;4.50;;;11.70;98.10;;;;;;5076853;28;20039;-85
2021/05/13 04:21:28;;;;;;;6.90;5.07;;;11.70;98.00;;;;;;5059449;28;20048;-86
2021/05/13 04:23:55;;;;;;;6.90;5.25;;;11.60;98.00;;;;;;5072461;28;20050;-86
2021/05/13 04:26:22;;;;;;;8.55;5.68;;;11.70;97.90;;;;;;5058961;28;20551;-86
2021/05/13 04:28:47;;;;;;;6.25;4.75;;;11.60;98.20;;;;;;5068463;28;20033;-85
2021/05/13 04:31:14;;;;;;;9.48;4.90;;;11.50;98.00;;;;;;5083753;28;20043;-85
2021/05/13 04:33:39;;;;;;;5.90;5.25;;;11.60;98.20;;;;;;5075171;28;20101;-85
2021/05/13 04:36:05;;;;;;;7.00;5.38;;;11.60;98.20;;;;;;5074528;28;20040;-86
2021/05/13 04:38:31;;;;;;;7.38;4.72;;;11.50;98.10;;;;;;5058064;28;20131;-86
2021/05/13 04:40:57;;;;;;;5.80;4.70;;;11.50;98.30;;;;;;5054402;28;20438;-86
2021/05/13 04:43:23;;;;;;;6.55;5.40;;;11.60;98.20;;;;;;5051712;28;20048;-85
2021/05/13 04:45:49;;;;;;;6.32;5.10;;;11.60;98.10;;;;;;5053509;28;20052;-86
2021/05/13 04:48:18;;;;;;;6.38;4.45;;;11.60;98.10;;;;;;5054457;28;20052;-86
2021/05/13 04:50:44;;;;;;;5.57;3.78;;;11.70;97.80;;;;;;5074677;28;20036;-86
2021/05/13 04:53:11;;;;;;;6.63;4.80;;;11.70;97.80;;;;;;5048750;28;20095;-85
2021/05/13 04:55:38;;;;;;;6.65;4.13;;;11.70;98.00;;;;;;5073878;28;20123;-85
2021/05/13 04:58:04;;;;;;;6.63;4.43;;;11.70;97.90;;;;;;5057329;28;20104;-85
2021/05/13 05:00:30;;;;;;;11.23;4.38;;;11.80;97.80;;;;;;5063341;28;20186;-85
2021/05/13 05:02:56;;;;;;;5.60;3.85;;;11.80;97.90;;;;;;5045856;28;20124;-85
2021/05/13 05:05:23;;;;;;;6.82;4.18;;;11.80;97.80;;;;;;5054335;28;20044;-85
2021/05/13 05:07:48;;;;;;;6.22;3.50;;;11.80;97.70;;;;;;5056194;28;20148;-85
2021/05/13 05:10:14;;;;;;;8.60;3.90;;;11.80;97.60;;;;;;5057167;28;20123;-86
2021/05/13 05:12:40;;;;;;;6.32;3.42;;;11.70;97.50;;;;;;5056393;28;20041;-85
2021/05/13 05:15:06;;;;;;;4.78;3.03;;;11.70;97.50;;;;;;5053628;28;20344;-86
2021/05/13 05:17:32;;;;;;;5.60;3.47;;;11.70;97.80;;;;;;5055483;28;20471;-86
2021/05/13 05:19:57;;;;;;;4.10;3.70;;;11.60;97.70;;;;;;5041439;28;20041;-86
2021/05/13 05:22:23;;;;;;;3.80;3.20;;;11.60;97.70;;;;;;5086623;28;20139;-86
2021/05/13 05:24:48;;;;;;;4.05;3.35;;;11.50;97.90;;;;;;5053588;28;20484;-86
2021/05/13 05:27:14;;;;;;;4.53;3.38;;;11.50;98.00;;;;;;5055278;28;20040;-85
2021/05/13 05:29:40;;;;;;;5.97;3.35;;;11.50;97.90;;;;;;5067313;28;20048;-86
2021/05/13 05:32:05;;;;;;;4.88;3.97;;;11.50;98.00;;;;;;5052574;28;20102;-86
2021/05/13 05:34:31;;;;;;;5.40;3.30;;;11.50;97.90;;;;;;5061043;28;20041;-85
2021/05/13 05:36:56;;;;;;;4.75;2.92;;;11.50;98.00;;;;;;5081344;28;20045;-86
2021/05/13 05:39:22;;;;;;;5.63;3.00;;;11.50;97.90;;;;;;5053653;28;20041;-86
2021/05/13 05:41:47;;;;;;;5.47;3.40;;;11.60;97.90;;;;;;5072715;28;20032;-86
2021/05/13 05:44:14;;;;;;;6.05;3.17;;;11.60;97.90;;;;;;5054214;28;20040;-85
2021/05/13 05:46:40;;;;;;;5.03;3.22;;;11.70;97.80;;;;;;5058755;28;20048;-87
2021/05/13 05:49:06;;;;;;;4.00;3.05;;;11.70;97.80;;;;;;5059240;28;20427;-87
2021/05/13 05:51:31;;;;;;;3.85;3.05;;;11.70;97.50;;;;;;5090842;28;20135;-87
2021/05/13 05:53:57;;;;;;;3.67;2.88;;;11.70;97.60;;;;;;5082785;28;20033;-87
2021/05/13 05:56:22;;;;;;;6.25;3.70;;;11.70;97.50;;;;;;5075744;28;20051;-87
2021/05/13 05:58:48;;;;;;;5.53;3.70;;;11.70;97.70;;;;;;5048813;28;20074;-86
2021/05/13 06:01:13;;;;;;;4.35;3.25;;;11.70;98.20;;;;;;5075386;28;20219;-87
2021/05/13 06:03:39;;;;;;;6.70;3.30;;;11.70;97.80;;;;;;5075764;28;20032;-86
2021/05/13 06:06:04;;;;;;;4.32;3.55;;;11.80;97.90;;;;;;5075039;28;20090;-87
2021/05/13 06:08:30;;;;;;;9.20;4.25;;;11.80;97.80;;;;;;5075390;28;20127;-86
2021/05/13 06:10:55;;;;;;;9.32;4.20;;;11.80;97.60;;;;;;5055695;28;20052;-86
2021/05/13 06:13:21;;;;;;;9.27;3.15;;;11.80;97.70;;;;;;5050363;28;20036;-87
2021/05/13 06:15:46;;;;;;;5.50;3.38;;;11.80;97.90;;;;;;5044682;28;20052;-87
2021/05/13 06:18:12;;;;;;;9.05;4.00;;;11.90;97.80;;;;;;5070781;28;20061;-86
2021/05/13 06:20:37;;;;;;;5.57;4.15;;;11.80;97.70;;;;;;5060828;28;20283;-87
2021/05/13 06:23:04;;;;;;;7.03;4.15;;;11.90;97.90;;;;;;5053149;28;20110;-87
2021/05/13 06:25:29;;;;;;;7.32;4.28;;;12.00;97.90;;;;;;5051285;28;20040;-86
2021/05/13 06:27:57;;;;;;;7.32;3.72;;;12.00;97.70;;;;;;5071475;28;20048;-86
2021/05/13 06:30:24;;;;;;;7.43;4.82;;;12.10;97.60;;;;;;5055219;28;20029;-87
2021/05/13 06:32:49;;;;;;;10.27;4.15;;;12.10;97.90;;;;;;5054505;28;20043;-86
2021/05/13 06:35:17;;;;;;;4.75;3.95;;;12.20;97.30;;;;;;5043093;28;20036;-85
2021/05/13 06:37:43;;;;;;;6.07;3.70;;;12.20;97.50;;;;;;5075132;28;20049;-86
2021/05/13 06:40:13;;;;;;;6.00;3.70;;;12.20;97.40;;;;;;5039347;28;20036;-87
2021/05/13 06:42:38;;;;;;;8.63;4.97;;;12.20;97.40;;;;;;5055844;28;20277;-87
2021/05/13 06:45:06;;;;;;;7.72;4.97;;;12.20;97.40;;;;;;5045819;28;20097;-87
2021/05/13 06:47:31;;;;;;;6.95;4.50;;;12.30;97.30;;;;;;5056277;28;20044;-87
2021/05/13 06:49:57;;;;;;;5.05;4.55;;;12.20;97.20;;;;;;5078252;28;20047;-86
2021/05/13 06:52:22;;;;;;;8.07;4.38;;;12.20;97.30;;;;;;5059413;28;20036;-87
2021/05/13 06:54:48;;;;;;;6.80;4.47;;;12.30;97.30;;;;;;5049921;28;20040;-86
2021/05/13 06:57:13;;;;;;;6.22;4.50;;;12.30;97.20;;;;;;5059137;28;20063;-86
2021/05/13 06:59:41;;;;;;;7.28;4.75;;;12.40;97.40;;;;;;5058671;28;20307;-87
2021/05/13 07:02:10;;;;;;;8.25;4.75;;;12.40;97.30;;;;;;5093199;28;20097;-87
2021/05/13 07:04:36;;;;;;;7.65;5.60;;;12.40;97.40;;;;;;5068815;28;20055;-87
2021/05/13 07:07:02;;;;;;;4.53;4.03;;;12.40;97.20;;;;;;5061598;28;20391;-87
2021/05/13 07:09:27;;;;;;;8.07;4.78;;;12.40;97.20;;;;;;5078842;28;20036;-86
2021/05/13 07:11:53;;;;;;;8.23;5.65;;;12.40;97.30;;;;;;5061466;28;20371;-88
2021/05/13 07:14:20;;;;;;;9.45;4.55;;;12.50;97.40;;;;;;5093172;28;20044;-86
2021/05/13 07:16:45;;;;;;;7.00;4.63;;;12.60;97.00;;;;;;5061248;28;20051;-86
2021/05/13 07:19:11;;;;;;;6.15;4.35;;;12.60;96.90;;;;;;5079096;28;20048;-86
2021/05/13 07:21:36;;;;;;;7.72;5.00;;;12.60;96.50;;;;;;5077912;28;20153;-87
2021/05/13 07:24:02;;;;;;;4.97;4.35;;;12.60;96.60;;;;;;5078680;28;20353;-87
2021/05/13 07:26:28;;;;;;;5.20;4.25;;;12.60;96.90;;;;;;5061358;28;20111;-88
2021/05/13 07:28:53;;;;;;;8.52;4.95;;;12.60;97.20;;;;;;5058219;28;20033;-87
2021/05/13 07:31:20;;;;;;;5.78;4.13;;;12.60;97.20;;;;;;5066863;28;20075;-86
2021/05/13 07:33:47;;;;;;;5.13;4.18;;;12.60;97.20;;;;;;5078496;28;20036;-86
2021/05/13 07:36:13;;;;;;;7.93;4.60;;;12.60;97.10;;;;;;5078751;28;20040;-86
2021/05/13 07:38:39;;;;;;;5.05;3.58;;;12.60;96.90;;;;;;5061278;28;20108;-86
2021/05/13 07:41:06;;;;;;;7.07;4.32;;;12.50;96.80;;;;;;5054524;28;20047;-87
2021/05/13 07:43:33;;;;;;;6.50;4.68;;;12.50;96.80;;;;;;5058359;28;20037;-87
2021/05/13 07:45:59;;;;;;;7.63;4.55;;;12.50;97.10;;;;;;5059772;28;20047;-87
2021/05/13 07:48:30;;;;;;;4.57;3.75;;;12.50;97.10;;;;;;5060797;28;20347;-87
2021/05/13 07:50:55;;;;;;;5.55;4.30;;;12.50;97.20;;;;;;5074061;28;20036;-87
2021/05/13 07:53:22;;;;;;;10.60;4.40;;;12.60;97.30;;;;;;5040828;28;20047;-87
2021/05/13 07:55:48;;;;;;;4.60;3.60;;;12.60;97.00;;;;;;5057986;28;20045;-87
2021/05/13 07:58:13;;;;;;;5.05;3.58;;;12.70;96.90;;;;;;5058023;28;20051;-88
2021/05/13 08:00:40;;;;;;;6.15;3.97;;;12.70;96.90;;;;;;5041128;28;20308;-86
2021/05/13 08:03:05;;;;;;;5.68;3.83;;;12.70;97.00;;;;;;5057879;28;20043;-87
2021/05/13 08:05:31;;;;;;;6.30;4.05;;;12.80;97.00;;;;;;5040817;28;20303;-87
2021/05/13 08:07:56;;;;;;;6.18;4.20;;;12.80;96.60;;;;;;5040827;28;20059;-89
2021/05/13 08:10:22;;;;;;;5.72;4.15;;;12.90;97.00;;;;;;5070619;28;20043;-87
2021/05/13 08:12:47;;;;;;;5.63;3.85;;;12.90;96.80;;;;;;5041753;28;20033;-88
2021/05/13 08:15:13;;;;;;;6.70;3.25;;;12.90;96.80;;;;;;5057815;28;20032;-87
2021/05/13 08:17:43;;;;;;;7.00;3.72;;;12.90;96.10;;;;;;5040251;28;20036;-88
2021/05/13 08:20:14;;;;;;;6.30;3.85;;;12.90;96.60;;;;;;5073929;28;20044;-87
2021/05/13 08:22:41;;;;;;;5.60;3.35;;;13.00;96.60;;;;;;5057357;28;20045;-86
2021/05/13 08:25:08;;;;;;;3.70;3.15;;;13.00;96.50;;;;;;5060160;28;20040;-87
2021/05/13 08:27:33;;;;;;;4.78;3.30;;;13.00;96.30;;;;;;5059987;28;20041;-87
2021/05/13 08:30:00;;;;;;;4.63;3.25;;;13.10;96.30;;;;;;5051236;28;20466;-86
2021/05/13 08:32:26;;;;;;;5.32;3.53;;;13.20;95.60;;;;;;5054606;28;20068;-90
2021/05/13 08:34:52;;;;;;;4.65;2.90;;;13.10;96.00;;;;;;5077127;28;20357;-88
2021/05/13 08:37:18;;;;;;;5.03;2.65;;;13.10;95.40;;;;;;5062920;28;20037;-87
2021/05/13 08:39:43;;;;;;;3.92;2.70;;;13.20;95.50;;;;;;5040034;28;20067;-87
2021/05/13 08:42:11;;;;;;;5.03;2.55;;;13.20;95.40;;;;;;5068703;28;20060;-87
2021/05/13 08:44:37;;;;;;;4.80;2.50;;;13.20;95.60;;;;;;5060075;28;20040;-88
2021/05/13 08:47:02;;;;;;;5.70;2.30;;;13.20;94.70;;;;;;5059998;28;20048;-88
2021/05/13 08:49:28;;;;;;;2.35;1.67;;;13.20;94.80;;;;;;5077156;28;20055;-86
2021/05/13 08:51:53;;;;;;;2.88;1.77;;;13.10;94.50;;;;;;5067927;28;20042;-87
2021/05/13 08:54:20;;;;;;;7.43;1.92;;;13.00;95.00;;;;;;5039420;28;20099;-86
2021/05/13 08:56:47;;;;;;;3.78;2.03;;;13.00;95.20;;;;;;5057035;28;20064;-87
2021/05/13 08:59:14;;;;;;;3.45;1.67;;;13.00;95.00;;;;;;5039505;28;20450;-88
2021/05/13 09:01:59;;;;;;;4.00;1.85;;;13.00;94.70;;;;;;5063281;28;20094;-87
2021/05/13 09:04:39;;;;;;;2.72;1.60;;;13.00;94.80;;;;;;5059579;28;20119;-87
2021/05/13 09:07:21;;;;;;;5.38;2.60;;;13.00;95.50;;;;;;5060800;28;20037;-87
2021/05/13 09:10:08;;;;;;;3.05;2.28;;;13.00;95.30;;;;;;5048292;28;20358;-88
2021/05/13 09:12:39;;;;;;;6.57;2.60;;;13.00;94.60;;;;;;5056582;28;20036;-87
2021/05/13 09:15:18;;;;;;;7.07;3.17;;;13.00;94.90;;;;;;5041519;28;20040;-87
2021/05/13 09:17:47;;;;;;;3.13;2.60;;;13.00;95.90;;;;;;5056785;28;20087;-86
2021/05/13 09:20:31;;;;;;;3.90;1.90;;;13.10;96.00;;;;;;5069816;28;20050;-88
2021/05/13 09:23:11;;;;;;;4.40;2.58;;;13.20;95.00;;;;;;5076768;28;20036;-88
2021/05/13 09:25:37;;;;;;;4.63;2.67;;;13.30;95.40;;;;;;5059250;28;20121;-87
2021/05/13 09:28:03;;;;;;;5.25;3.17;;;13.30;95.30;;;;;;5059191;28;20391;-87
2021/05/13 09:30:29;;;;;;;4.13;2.78;;;13.40;95.60;;;;;;5058721;28;20052;-88
2021/05/13 09:33:00;;;;;;;4.30;3.58;;;13.50;95.40;;;;;;5059021;28;20036;-87
2021/05/13 09:35:29;;;;;;;5.07;3.50;;;13.60;94.90;;;;;;5076582;28;20407;-87
2021/05/13 09:38:03;;;;;;;5.90;3.70;;;13.70;94.90;;;;;;5051653;28;20663;-88
2021/05/13 09:40:43;;;;;;;5.30;4.50;;;13.70;95.10;;;;;;5068128;28;20051;-86
2021/05/13 09:43:16;;;;;;;6.00;4.00;;;13.80;95.80;;;;;;5039277;28;20040;-88
2021/05/13 09:45:56;;;;;;;4.50;3.45;;;13.90;95.70;;;;;;5056443;28;20079;-86
2021/05/13 09:48:36;;;;;;;5.32;4.00;;;14.00;94.30;;;;;;5039328;28;20037;-87
2021/05/13 09:51:15;;;;;;;5.60;3.38;;;14.00;94.50;;;;;;5059241;28;20043;-88
2021/05/13 09:53:42;;;;;;;4.97;4.00;;;14.10;94.00;;;;;;5076927;28;20047;-88
2021/05/13 09:56:28;;;;;;;4.25;3.42;;;14.00;94.60;;;;;;5058858;28;20052;-87
2021/05/13 09:58:55;;;;;;;5.18;3.38;;;14.10;94.70;;;;;;5059128;28;20111;-88
2021/05/13 10:01:21;;;;;;;6.03;4.18;;;14.10;93.40;;;;;;5074717;28;20039;-86
2021/05/13 10:03:46;;;;;;;4.40;4.00;;;13.90;93.80;;;;;;5073360;28;20032;-87
2021/05/13 10:06:12;;;;;;;7.22;4.50;;;13.80;94.10;;;;;;5060269;28;20339;-87
2021/05/13 10:08:42;;;;;;;6.22;3.75;;;13.70;94.20;;;;;;5038901;28;20033;-88
2021/05/13 10:11:09;;;;;;;4.93;3.80;;;13.70;94.50;;;;;;5038841;28;20357;-88
2021/05/13 10:13:36;;;;;;;7.68;4.07;;;13.70;94.20;;;;;;5056121;28;20068;-88
2021/05/13 10:16:03;;;;;;;6.70;3.65;;;13.60;94.60;;;;;;5056817;28;20337;-88
2021/05/13 10:18:40;;;;;;;6.28;3.53;;;13.70;94.50;;;;;;5055962;28;20044;-89
2021/05/13 10:21:15;;;;;;;5.10;3.20;;;13.70;94.10;;;;;;5090180;28;20101;-89
2021/05/13 10:23:42;;;;;;;7.00;3.25;;;13.80;93.70;;;;;;5060973;28;20430;-87
2021/05/13 10:26:20;;;;;;;6.72;3.13;;;13.80;94.00;;;;;;5042987;28;20308;-88
2021/05/13 10:28:45;;;;;;;5.65;3.38;;;13.80;93.40;;;;;;5076366;28;20724;-88
2021/05/13 10:31:10;;;;;;;6.18;3.10;;;13.80;93.80;;;;;;5043384;28;20029;-90
2021/05/13 10:33:49;;;;;;;4.25;2.67;;;13.90;93.80;;;;;;5042848;28;20037;-89
2021/05/13 10:36:17;;;;;;;3.72;2.60;;;13.90;93.40;;;;;;5042355;28;20064;-88
2021/05/13 10:39:07;;;;;;;3.53;2.50;;;13.90;92.80;;;;;;5075869;28;20125;-89
2021/05/13 10:41:36;;;;;;;3.65;2.28;;;14.00;92.30;;;;;;5059618;28;20064;-89
2021/05/13 10:44:10;;;;;;;4.05;2.78;;;13.90;92.50;;;;;;5062380;28;20311;-89
2021/05/13 10:46:37;;;;;;;4.38;2.78;;;13.90;92.80;;;;;;5061961;28;20135;-88
2021/05/13 10:49:14;;;;;;;7.03;2.50;;;13.90;92.80;;;;;;5080181;28;20052;-88
2021/05/13 10:51:40;;;;;;;3.55;1.70;;;13.90;92.60;;;;;;5062440;28;20139;-89
2021/05/13 10:54:06;;;;;;;2.83;2.17;;;13.70;91.70;;;;;;5061853;28;20136;-89
2021/05/13 10:56:33;;;;;;;2.13;1.25;;;13.70;91.60;;;;;;5079605;28;20047;-89
2021/05/13 10:59:10;;;;;;;1.75;1.17;;;13.70;91.00;;;;;;5062070;28;20198;-89
2021/05/13 11:01:46;;;;;;;1.33;0.93;;;13.70;91.30;;;;;;5061801;28;20041;-88
2021/05/13 11:07:01;;;;;;;1.10;1.00;;;13.80;89.80;;;;;;5081665;28;20376;-87
2021/05/13 11:09:39;;;;;;;1.55;0.90;;;13.90;90.50;;;;;;5061467;28;20334;-88
2021/05/13 11:12:11;;;;;;;1.63;0.80;;;13.90;90.50;;;;;;5066653;28;20043;-88
2021/05/13 11:15:04;;;;;;;1.08;0.82;;;14.00;90.40;;;;;;5061659;28;20127;-89
2021/05/13 11:20:27;;;;;;;1.02;0.93;;;14.10;90.80;;;;;;5058902;28;20079;-88
2021/05/13 11:22:58;;;;;;;2.35;1.30;;;14.10;90.90;;;;;;5058771;28;20075;-88
2021/05/13 11:25:49;;;;;;;2.20;1.23;;;14.10;90.80;;;;;;5041728;28;20044;-88
2021/05/13 11:28:41;;;;;;;2.78;1.48;;;14.10;90.80;;;;;;5044655;28;20048;-88
2021/05/13 11:31:07;;;;;;;2.60;1.23;;;14.10;91.10;;;;;;5075069;28;20351;-88
2021/05/13 11:33:47;;;;;;;3.15;1.70;;;14.10;91.70;;;;;;5040938;28;20029;-87
2021/05/13 11:36:17;;;;;;;2.42;1.70;;;14.10;92.00;;;;;;5058749;28;20109;-86
2021/05/13 11:38:50;;;;;;;4.28;2.10;;;14.30;91.50;;;;;;5040894;28;20170;-87
2021/05/13 11:41:19;;;;;;;2.15;1.92;;;14.40;91.90;;;;;;5057277;28;20093;-87
2021/05/13 11:43:45;;;;;;;2.47;2.28;;;14.50;91.90;;;;;;5094716;28;20119;-88
2021/05/13 11:46:15;;;;;;;2.90;1.90;;;14.60;92.00;;;;;;5094506;28;20051;-88
2021/05/13 11:48:44;;;;;;;2.67;1.98;;;14.70;91.30;;;;;;5078075;28;20044;-88
2021/05/13 11:51:17;;;;;;;3.78;1.95;;;14.80;91.40;;;;;;5060748;28;20332;-87
2021/05/13 11:53:46;;;;;;;2.95;2.08;;;14.80;90.40;;;;;;5058454;28;20029;-90
2021/05/13 11:56:13;;;;;;;2.42;1.38;;;14.80;90.60;;;;;;5040925;28;20399;-89
2021/05/13 11:58:47;;;;;;;3.50;1.90;;;14.70;90.80;;;;;;5040650;28;20421;-89
2021/05/13 12:01:17;;;;;;;4.45;1.65;;;14.80;90.40;;;;;;5066187;28;20033;-88
2021/05/13 12:03:47;;;;;;;3.15;1.08;;;14.80;90.20;;;;;;5074822;28;20277;-88
2021/05/13 12:06:13;;;;;;;3.15;0.88;;;14.90;90.40;;;;;;5075148;28;20051;-88
2021/05/13 12:08:39;;;;;;;2.22;1.30;;;14.90;90.20;;;;;;5060491;28;20052;-89
2021/05/13 12:11:25;;;;;;;2.42;1.00;;;14.90;88.70;;;;;;5078173;28;20039;-90
2021/05/13 12:13:52;;;;;;;4.15;1.40;;;14.90;89.40;;;;;;5077393;28;20167;-89
2021/05/13 12:16:19;;;;;;;3.33;1.20;;;14.80;88.80;;;;;;5077154;28;20047;-86
2021/05/13 12:18:46;;;;;;;2.13;1.20;;;14.80;89.70;;;;;;5077435;28;20431;-90
2021/05/13 12:21:15;;;;;;;1.77;1.23;;;14.80;89.60;;;;;;5060535;28;20434;-89
2021/05/13 12:23:42;;;;;;;2.65;1.45;;;14.80;89.90;;;;;;5077778;28;20044;-88
2021/05/13 12:26:08;;;;;;;3.13;1.83;;;14.90;89.30;;;;;;5077496;28;20046;-89
2021/05/13 12:28:36;;;;;;;2.85;1.42;;;14.90;90.00;;;;;;5077063;28;20036;-88
2021/05/13 12:31:01;;;;;;;1.98;1.38;;;14.90;89.40;;;;;;5070599;28;20573;-86
2021/05/13 12:33:30;;;;;;;3.63;1.00;;;14.90;89.40;;;;;;5040411;28;20094;-88
2021/05/13 12:35:56;;;;;;;2.63;1.00;;;14.80;88.90;;;;;;5057921;28;20037;-88
2021/05/13 12:38:24;;;;;;;8.43;1.60;;;14.80;87.70;;;;;;5071736;28;20048;-88
2021/05/13 12:41:06;;;;;;;2.60;1.25;;;14.60;88.10;;;;;;5040372;28;20044;-87
2021/05/13 12:43:32;;;;;;;2.70;1.25;;;14.70;90.00;;;;;;5067040;28;20063;-89
2021/05/13 12:45:57;;;;;;;1.88;1.13;;;14.70;90.00;;;;;;5053330;28;20040;-88
2021/05/13 12:48:25;;;;;;;1.98;1.30;;;14.70;90.00;;;;;;5085619;28;20036;-89
2021/05/13 12:50:57;;;;;;;2.50;0.80;;;14.80;88.40;;;;;;5058606;28;20040;-87
2021/05/13 12:53:24;;;;;;;2.00;1.15;;;14.90;88.70;;;;;;5080903;28;20036;-86
2021/05/13 12:55:50;;;;;;;3.28;1.45;;;14.90;86.80;;;;;;5052485;28;20120;-88
2021/05/13 12:58:25;;;;;;;2.40;1.20;;;15.00;87.50;;;;;;5048554;28;20033;-87
2021/05/13 13:01:00;;;;;;;2.83;1.48;;;15.00;87.10;;;;;;5045258;28;20064;-89
2021/05/13 13:03:40;;;;;;;1.40;1.30;;;15.10;87.60;;;;;;5052546;28;20331;-88
2021/05/13 13:06:06;;;;;;;3.00;1.48;;;15.20;86.30;;;;;;5050684;28;20323;-88